Liberty Island — HPUY — position and weather

sailwx.info

Track history (hours):
 
Tides and Currents Weather Stations Pressure Air Temp Water Temp Dewpoint Dewpoint Depression Visibility Wind Speed Wind Dir Waves Ship Positions

Liberty Island

Last reported at 2016-Jul-01 04:21 UTC. Time now 2016-Jul-01 06:26 UTC.
Position N 35°55' E 140°40'.

Length 178 m; draft 10.6 m.

Type: Cargo ship. MMSI: 355886000.

Date/timePositionNaut miles runAvg speedWind from/ knotsBaromVisibWave heightAir tempDewpointWater temp
2016-Jul-01 04:21N 35°55' E 140°40'0 0.0
2016-Jul-01 03:27N 35°55' E 140°40'0 0.0
2016-Jul-01 02:33N 35°55' E 140°40'0 0.0
2016-Jul-01 01:27N 35°55' E 140°40'0 0.0
2016-Jul-01 00:33N 35°55' E 140°40'0 0.0
2016-Jun-30 23:33N 35°55' E 140°40'0 0.1
2016-Jun-30 22:33N 35°55' E 140°40'7 6.8
2016-Jun-30 21:33N 36°00' E 140°45'5 5.2
2016-Jun-30 20:33N 36°05' E 140°47'7 2.8
2016-Jun-30 18:08N 36°12' E 140°50'0 0.2
2016-Jun-30 17:14N 36°12' E 140°50'0 0.3
2016-Jun-30 16:23N 36°12' E 140°50'0 0.4
2016-Jun-30 15:20N 36°12' E 140°51'0 0.3
2016-Jun-30 14:24N 36°12' E 140°51'5 5.1
2016-Jun-30 13:31N 36°17' E 140°52'1211.3
2016-Jun-30 12:27N 36°28' E 140°57'  
Track history (hours):
 
Tides and Currents Weather Stations Pressure Air Temp Water Temp Dewpoint Dewpoint Depression Visibility Wind Speed Wind Dir Waves Ship Positions

Liberty Island

Last reported at 2016-Jul-01 04:21 UTC. Time now 2016-Jul-01 06:26 UTC.
Position N 35°55' E 140°40'.

Length 178 m; draft 10.6 m.

Type: Cargo ship. MMSI: 355886000.

Date/timePositionNaut miles runAvg speedWind from/ knotsBaromVisibWave heightAir tempDewpointWater temp
2016-Jul-01 04:21N 35°55' E 140°40'0 0.0
2016-Jul-01 03:27N 35°55' E 140°40'0 0.0
2016-Jul-01 02:33N 35°55' E 140°40'0 0.0
2016-Jul-01 01:27N 35°55' E 140°40'0 0.0
2016-Jul-01 00:33N 35°55' E 140°40'0 0.0
2016-Jun-30 23:33N 35°55' E 140°40'0 0.1
2016-Jun-30 22:33N 35°55' E 140°40'7 6.8
2016-Jun-30 21:33N 36°00' E 140°45'5 5.2
2016-Jun-30 20:33N 36°05' E 140°47'7 2.8
2016-Jun-30 18:08N 36°12' E 140°50'0 0.2
2016-Jun-30 17:14N 36°12' E 140°50'0 0.3
2016-Jun-30 16:23N 36°12' E 140°50'0 0.4
2016-Jun-30 15:20N 36°12' E 140°51'0 0.3
2016-Jun-30 14:24N 36°12' E 140°51'5 5.1
2016-Jun-30 13:31N 36°17' E 140°52'1211.3
2016-Jun-30 12:27N 36°28' E 140°57'  

Dump ship's entire track history